Time;durP1;ratioP1;P1;durP2;ratioP2;P2;SDS_P1;SDS_P2;PMS_P1;PMS_P2;Temp;Humidity;BMP_temperature;BMP_pressure;BME280_temperature;BME280_humidity;BME280_pressure;Samples;Min_cycle;Max_cycle;Signal;HPM_P1;HPM_P2
2023/12/11 00:01:09;;;;;;;2.42;1.05;;;;;;;12.79;68.05;96107.25;4887049;28;20137;-78
2023/12/11 00:03:35;;;;;;;4.15;1.40;;;;;;;12.74;68.32;96115.19;4900510;28;20214;-79
2023/12/11 00:06:00;;;;;;;1.70;1.20;;;;;;;12.78;68.40;96123.97;4902749;28;20182;-77
2023/12/11 00:08:25;;;;;;;3.00;1.15;;;;;;;12.91;67.54;96125.13;4887484;28;20628;-77
2023/12/11 00:10:51;;;;;;;4.05;1.83;;;;;;;12.87;67.46;96126.75;4886932;28;20201;-77
2023/12/11 00:13:16;;;;;;;2.78;1.05;;;;;;;12.85;67.51;96137.50;4904239;28;20185;-77
2023/12/11 00:15:42;;;;;;;1.35;1.02;;;;;;;12.86;67.69;96133.03;4903272;28;20203;-78
2023/12/11 00:18:07;;;;;;;2.10;1.20;;;;;;;12.88;68.04;96138.75;4876104;28;20268;-77
2023/12/11 00:20:33;;;;;;;2.35;1.10;;;;;;;12.97;68.19;96149.31;4895256;28;20404;-77
2023/12/11 00:22:59;;;;;;;4.18;1.50;;;;;;;12.95;68.30;96154.81;4902810;28;20297;-78
2023/12/11 00:25:24;;;;;;;3.33;1.33;;;;;;;12.82;68.71;96158.19;4903121;28;20444;-78
2023/12/11 00:27:51;;;;;;;3.05;1.23;;;;;;;12.87;68.56;96150.25;4887449;28;20304;-78
2023/12/11 00:30:16;;;;;;;2.22;1.52;;;;;;;13.06;68.12;96163.31;4871282;28;20832;-77
2023/12/11 00:32:42;;;;;;;2.92;1.58;;;;;;;13.02;67.70;96152.66;4910043;28;20277;-78
2023/12/11 00:35:07;;;;;;;2.03;1.30;;;;;;;13.14;67.94;96154.03;4902882;28;20271;-78
2023/12/11 00:37:33;;;;;;;2.15;1.80;;;;;;;13.12;67.20;96156.91;4887891;28;20628;-77
2023/12/11 00:39:58;;;;;;;2.55;1.25;;;;;;;13.09;67.82;96152.25;4886479;28;20438;-77
2023/12/11 00:42:24;;;;;;;4.65;1.38;;;;;;;12.84;69.01;96146.38;4883736;28;20393;-77
2023/12/11 00:44:49;;;;;;;2.35;1.45;;;;;;;12.94;68.81;96148.06;4886098;28;20175;-77
2023/12/11 00:47:15;;;;;;;1.77;1.30;;;;;;;13.07;68.32;96149.97;4888216;28;20180;-78
2023/12/11 00:49:40;;;;;;;4.32;1.55;;;;;;;13.06;67.99;96145.00;4888354;28;20667;-77
2023/12/11 00:52:06;;;;;;;2.92;1.90;;;;;;;13.17;68.31;96143.00;4903097;28;20205;-77
2023/12/11 00:54:31;;;;;;;1.88;1.08;;;;;;;13.06;67.37;96139.78;4899318;28;20576;-77
2023/12/11 00:56:57;;;;;;;2.10;1.30;;;;;;;13.09;68.19;96139.19;4888898;28;20287;-77
2023/12/11 00:59:22;;;;;;;2.75;1.95;;;;;;;13.08;67.87;96130.59;4871509;28;20181;-77
2023/12/11 01:01:48;;;;;;;2.30;1.60;;;;;;;12.95;68.47;96131.31;4899697;28;20222;-77
2023/12/11 01:04:14;;;;;;;3.42;1.65;;;;;;;12.95;68.44;96130.53;4866275;28;20897;-77
2023/12/11 01:06:39;;;;;;;2.33;1.20;;;;;;;13.10;68.08;96127.69;4914605;28;20195;-79
2023/12/11 01:09:05;;;;;;;2.67;1.20;;;;;;;12.99;68.35;96127.09;4896543;28;20197;-78
2023/12/11 01:11:30;;;;;;;2.25;1.05;;;;;;;13.08;67.80;96119.38;4908335;28;20651;-77
2023/12/11 01:13:56;;;;;;;1.55;0.90;;;;;;;13.09;67.88;96123.50;4881814;28;20288;-77
2023/12/11 01:16:21;;;;;;;3.08;1.20;;;;;;;13.02;68.13;96129.13;4923922;28;20223;-78
2023/12/11 01:18:47;;;;;;;3.05;1.23;;;;;;;13.11;68.09;96139.72;4911292;28;20214;-78
2023/12/11 01:21:12;;;;;;;3.70;1.00;;;;;;;13.14;68.09;96144.34;4910237;28;20302;-77
2023/12/11 01:23:38;;;;;;;1.30;0.98;;;;;;;12.99;68.35;96119.25;4917874;28;20738;-79
2023/12/11 01:26:04;;;;;;;2.58;1.10;;;;;;;13.01;67.79;96129.41;4908719;28;20205;-78
2023/12/11 01:28:30;;;;;;;1.95;1.15;;;;;;;12.99;68.07;96134.91;4907103;28;20215;-78
2023/12/11 01:30:55;;;;;;;1.67;1.25;;;;;;;12.86;68.77;96125.97;4874416;28;20194;-77
2023/12/11 01:33:21;;;;;;;1.40;0.82;;;;;;;12.92;67.45;96119.59;4908586;28;20504;-78
2023/12/11 01:35:46;;;;;;;2.53;1.10;;;;;;;12.88;68.26;96118.59;4874674;28;20368;-77
2023/12/11 01:38:12;;;;;;;2.47;1.10;;;;;;;12.82;67.87;96122.38;4890720;28;20217;-77
2023/12/11 01:40:37;;;;;;;2.17;0.90;;;;;;;12.91;67.44;96115.44;4895139;28;20428;-77
2023/12/11 01:43:17;;;;;;;1.75;1.35;;;;;;;13.16;66.57;96116.09;4907097;28;20341;-78
2023/12/11 01:45:42;;;;;;;3.10;1.10;;;;;;;13.20;67.45;96122.31;4907517;28;20564;-77
2023/12/11 01:48:09;;;;;;;3.83;2.67;;;;;;;12.90;67.65;96116.50;4885756;28;20141;-77
2023/12/11 01:50:35;;;;;;;3.55;1.02;;;;;;;13.06;67.06;96114.44;4875853;28;20193;-77
2023/12/11 01:53:01;;;;;;;3.05;1.15;;;;;;;13.13;67.10;96110.69;4874420;28;20652;-77
2023/12/11 01:55:28;;;;;;;2.30;1.10;;;;;;;13.12;66.53;96115.09;4891739;28;20253;-79
2023/12/11 01:57:53;;;;;;;3.42;1.45;;;;;;;13.15;67.28;96129.47;4891406;28;20277;-78
2023/12/11 02:00:19;;;;;;;3.50;1.23;;;;;;;13.21;66.82;96134.31;4882790;28;20338;-77
2023/12/11 02:02:45;;;;;;;3.83;1.30;;;;;;;13.00;67.35;96122.63;4899345;28;20106;-78
2023/12/11 02:05:11;;;;;;;1.65;1.15;;;;;;;13.21;67.37;96133.53;4886035;28;20171;-78
2023/12/11 02:07:38;;;;;;;3.95;1.48;;;;;;;13.23;66.99;96132.19;4921735;28;20619;-77
2023/12/11 02:10:05;;;;;;;3.28;1.20;;;;;;;13.29;66.33;96138.09;4910395;28;20205;-77
2023/12/11 02:12:30;;;;;;;1.42;1.23;;;;;;;13.26;66.20;96149.13;4879776;28;20258;-78
2023/12/11 02:14:55;;;;;;;3.13;1.00;;;;;;;13.25;66.40;96145.75;4891380;28;20155;-78
2023/12/11 02:17:21;;;;;;;3.40;1.13;;;;;;;13.23;66.09;96141.84;4894459;28;20145;-77
2023/12/11 02:19:46;;;;;;;2.38;1.25;;;;;;;13.24;66.80;96138.94;4894486;28;20341;-78
2023/12/11 02:22:13;;;;;;;3.60;1.00;;;;;;;13.20;66.02;96137.22;4909440;28;20212;-78
2023/12/11 02:24:49;;;;;;;2.15;1.05;;;;;;;13.21;65.67;96138.75;4881047;28;20217;-78
2023/12/11 02:27:15;;;;;;;2.10;1.05;;;;;;;13.02;66.26;96144.00;4893282;28;20242;-78
2023/12/11 02:29:40;;;;;;;3.97;1.40;;;;;;;13.03;66.28;96138.50;4917704;28;20221;-78
2023/12/11 02:32:06;;;;;;;2.15;1.30;;;;;;;13.08;66.20;96146.28;4891346;28;20210;-77
2023/12/11 02:34:31;;;;;;;2.53;1.20;;;;;;;13.11;65.82;96147.56;4884526;28;20204;-79
2023/12/11 02:36:57;;;;;;;2.72;1.10;;;;;;;13.11;65.80;96150.16;4880511;28;20257;-78
2023/12/11 02:39:22;;;;;;;3.53;1.20;;;;;;;13.04;66.91;96150.53;4910121;28;20629;-77
2023/12/11 02:41:48;;;;;;;2.67;1.00;;;;;;;13.14;65.48;96149.56;4888488;28;20377;-78
2023/12/11 02:44:13;;;;;;;3.13;1.10;;;;;;;13.17;66.28;96151.63;4874523;28;20205;-78
2023/12/11 02:46:39;;;;;;;2.15;1.10;;;;;;;13.22;66.38;96153.38;4890092;28;20755;-79
2023/12/11 02:49:04;;;;;;;3.53;1.33;;;;;;;13.23;65.78;96153.09;4871412;28;20179;-78
2023/12/11 02:51:30;;;;;;;3.00;0.90;;;;;;;13.13;65.73;96149.88;4927989;28;20308;-77
2023/12/11 02:53:55;;;;;;;3.17;1.10;;;;;;;13.25;64.82;96148.34;4911929;28;20285;-78
2023/12/11 02:56:21;;;;;;;2.92;0.95;;;;;;;13.23;65.73;96152.31;4891767;28;20204;-78
2023/12/11 02:58:46;;;;;;;1.98;1.60;;;;;;;13.15;66.09;96155.59;4870715;28;20703;-78
2023/12/11 03:01:12;;;;;;;2.95;1.20;;;;;;;13.23;64.90;96152.31;4908198;28;20710;-78
2023/12/11 03:03:37;;;;;;;3.08;1.25;;;;;;;13.22;64.62;96141.09;4877088;28;20284;-78
2023/12/11 03:06:04;;;;;;;4.10;1.23;;;;;;;13.30;65.15;96139.66;4878603;28;20336;-78
2023/12/11 03:08:29;;;;;;;3.67;1.88;;;;;;;13.27;65.71;96140.22;4930284;28;20710;-78
2023/12/11 03:10:55;;;;;;;3.63;1.45;;;;;;;13.33;65.94;96136.47;4925512;28;20636;-77
2023/12/11 03:13:20;;;;;;;1.90;1.63;;;;;;;13.24;65.85;96125.13;4877990;28;20215;-78
2023/12/11 03:15:46;;;;;;;4.28;1.55;;;;;;;13.23;65.11;96108.66;4896773;28;20640;-77
2023/12/11 03:18:11;;;;;;;4.57;1.70;;;;;;;13.30;65.13;96106.44;4896479;28;20240;-78
2023/12/11 03:20:37;;;;;;;3.53;1.83;;;;;;;13.30;65.57;96103.84;4894354;28;20194;-78
2023/12/11 03:23:02;;;;;;;5.15;2.00;;;;;;;13.26;65.49;96109.91;4894450;28;20292;-78
2023/12/11 03:25:27;;;;;;;3.15;2.38;;;;;;;13.24;65.77;96097.13;4922100;28;20273;-78
2023/12/11 03:27:53;;;;;;;2.88;1.85;;;;;;;13.28;65.98;96087.66;4907538;28;20717;-78
2023/12/11 03:30:18;;;;;;;2.67;1.67;;;;;;;13.32;65.28;96084.50;4895411;28;20607;-77
2023/12/11 03:32:44;;;;;;;5.95;2.00;;;;;;;13.29;65.81;96083.19;4893410;28;20209;-78
2023/12/11 03:35:09;;;;;;;4.03;1.60;;;;;;;13.22;65.81;96078.34;4910967;28;20182;-78
2023/12/11 03:37:35;;;;;;;5.68;1.70;;;;;;;13.23;66.73;96073.88;4901840;28;20236;-78
2023/12/11 03:40:00;;;;;;;2.90;2.10;;;;;;;13.36;66.23;96077.63;4906214;28;20195;-78
2023/12/11 03:42:26;;;;;;;5.00;1.98;;;;;;;13.36;65.99;96069.78;4919961;28;20208;-78
2023/12/11 03:44:51;;;;;;;4.40;1.92;;;;;;;13.17;67.45;96081.03;4902848;28;20713;-78
2023/12/11 03:47:17;;;;;;;3.20;2.70;;;;;;;13.25;67.12;96072.56;4910794;28;20136;-78
2023/12/11 03:49:43;;;;;;;3.88;2.28;;;;;;;13.48;66.22;96081.31;4878969;28;20283;-78
2023/12/11 03:52:08;;;;;;;2.30;2.10;;;;;;;13.49;66.14;96087.34;4894870;28;20252;-79
2023/12/11 03:54:34;;;;;;;3.42;2.53;;;;;;;13.49;67.03;96100.41;4914505;28;20210;-78
2023/12/11 03:56:59;;;;;;;4.03;2.40;;;;;;;13.43;66.66;96091.84;4903256;28;20660;-78
2023/12/11 03:59:25;;;;;;;5.25;2.38;;;;;;;13.52;66.09;96106.88;4895966;28;20211;-77
2023/12/11 04:01:50;;;;;;;4.32;2.53;;;;;;;13.44;67.11;96105.72;4915813;28;20241;-78
2023/12/11 04:04:15;;;;;;;3.13;2.50;;;;;;;13.45;66.77;96102.81;4892658;28;20695;-77
2023/12/11 04:06:41;;;;;;;3.05;2.50;;;;;;;13.52;66.88;96102.44;4920905;28;20212;-77
2023/12/11 04:09:07;;;;;;;3.97;2.88;;;;;;;13.58;67.10;96105.75;4928574;28;20260;-77
2023/12/11 04:11:34;;;;;;;3.35;2.17;;;;;;;13.47;67.23;96113.00;4902185;28;20850;-78
2023/12/11 04:14:00;;;;;;;2.53;2.28;;;;;;;13.36;67.94;96103.78;4915791;28;20361;-78
2023/12/11 04:16:25;;;;;;;3.78;2.10;;;;;;;13.40;67.90;96096.88;4898605;28;20313;-78
2023/12/11 04:18:50;;;;;;;2.10;2.00;;;;;;;13.55;67.41;96112.31;4893645;28;20205;-78
2023/12/11 04:21:16;;;;;;;2.33;1.80;;;;;;;13.48;66.53;96102.22;4907620;28;20286;-78
2023/12/11 04:23:41;;;;;;;3.83;2.10;;;;;;;13.43;67.86;96104.94;4904284;28;20185;-77
2023/12/11 04:26:07;;;;;;;1.70;1.60;;;;;;;13.71;66.32;96091.91;4912598;28;20163;-79
2023/12/11 04:28:32;;;;;;;2.33;1.70;;;;;;;13.65;66.03;96099.03;4878136;28;20354;-78
2023/12/11 04:30:58;;;;;;;3.40;1.95;;;;;;;13.80;66.18;96099.84;4907492;28;20210;-78
2023/12/11 04:33:23;;;;;;;2.83;1.60;;;;;;;13.62;66.72;96091.00;4907768;28;20211;-78
2023/12/11 04:35:49;;;;;;;3.78;1.58;;;;;;;13.60;66.17;96096.53;4907712;28;20205;-77
2023/12/11 04:38:15;;;;;;;3.13;1.92;;;;;;;13.61;66.70;96090.25;4923572;28;20178;-78
2023/12/11 04:40:40;;;;;;;1.60;1.50;;;;;;;13.68;66.47;96090.63;4889594;28;20229;-78
2023/12/11 04:43:05;;;;;;;5.57;1.40;;;;;;;13.66;66.05;96092.00;4905974;28;20205;-78
2023/12/11 04:45:31;;;;;;;2.28;1.50;;;;;;;13.77;66.10;96088.09;4906738;28;20185;-79
2023/12/11 04:47:56;;;;;;;3.47;1.25;;;;;;;13.77;66.20;96103.81;4907682;28;20206;-78
2023/12/11 04:50:22;;;;;;;3.75;1.45;;;;;;;13.62;66.41;96097.03;4922580;28;20667;-78
2023/12/11 04:52:48;;;;;;;1.70;1.50;;;;;;;13.82;64.79;96095.09;4892590;28;20217;-78
2023/12/11 04:55:13;;;;;;;2.67;1.80;;;;;;;13.82;65.01;96087.25;4889893;28;20294;-78
2023/12/11 04:57:39;;;;;;;1.63;1.30;;;;;;;13.61;65.10;96085.00;4891318;28;20325;-77
2023/12/11 05:00:05;;;;;;;1.63;1.02;;;;;;;13.67;66.37;96099.56;4930125;28;20678;-78
2023/12/11 05:02:31;;;;;;;3.80;1.20;;;;;;;13.30;66.20;96071.69;4922586;28;20719;-77
2023/12/11 05:04:56;;;;;;;3.55;1.30;;;;;;;13.56;66.14;96081.72;4881832;28;20256;-78
2023/12/11 05:07:22;;;;;;;2.75;1.15;;;;;;;13.86;63.97;96081.13;4916698;28;20194;-79
2023/12/11 05:09:47;;;;;;;3.35;1.10;;;;;;;13.76;64.41;96067.47;4892880;28;20222;-78
2023/12/11 05:12:13;;;;;;;1.85;0.90;;;;;;;13.73;63.84;96065.44;4892914;28;20644;-78
2023/12/11 05:14:38;;;;;;;2.42;1.20;;;;;;;13.84;64.27;96057.09;4910621;28;20694;-78
2023/12/11 05:17:03;;;;;;;2.55;1.05;;;;;;;13.91;63.25;96048.84;4886821;28;20315;-79
2023/12/11 05:19:29;;;;;;;2.78;0.98;;;;;;;13.79;63.62;96057.19;4911238;28;20295;-78
2023/12/11 05:21:58;;;;;;;4.95;1.23;;;;;;;13.80;63.66;96050.91;4891139;28;20327;-78
2023/12/11 05:24:24;;;;;;;5.13;1.33;;;;;;;13.92;63.63;96063.50;4912669;28;20303;-79
2023/12/11 05:26:49;;;;;;;1.55;1.08;;;;;;;13.85;64.00;96052.66;4891750;28;20211;-78
2023/12/11 05:29:14;;;;;;;2.45;1.10;;;;;;;13.78;64.33;96067.97;4906044;28;20225;-78
2023/12/11 05:31:40;;;;;;;2.83;0.90;;;;;;;13.90;63.07;96052.53;4908060;28;20258;-78
2023/12/11 05:34:05;;;;;;;6.00;1.60;;;;;;;13.75;64.20;96058.84;4906329;28;20193;-80
2023/12/11 05:36:33;;;;;;;3.08;1.13;;;;;;;13.91;63.08;96067.16;4889797;28;20197;-78
2023/12/11 05:38:58;;;;;;;3.50;0.90;;;;;;;13.89;63.57;96058.84;4896378;28;20204;-78
2023/12/11 05:41:24;;;;;;;2.88;0.90;;;;;;;13.97;63.06;96060.78;4894826;28;20197;-78
2023/12/11 05:43:49;;;;;;;3.05;1.42;;;;;;;13.97;63.59;96060.00;4906668;28;20200;-78
2023/12/11 05:46:14;;;;;;;2.75;1.00;;;;;;;14.00;63.66;96075.88;4893590;28;20576;-78
2023/12/11 05:48:40;;;;;;;2.85;1.45;;;;;;;13.84;63.93;96075.41;4878857;28;20204;-78
2023/12/11 05:51:05;;;;;;;2.33;1.17;;;;;;;13.82;64.32;96079.38;4918749;28;20246;-78
2023/12/11 05:53:31;;;;;;;3.83;1.50;;;;;;;13.79;63.63;96067.66;4901206;28;20251;-78
2023/12/11 05:55:56;;;;;;;2.33;1.50;;;;;;;13.82;64.37;96061.06;4909441;28;20189;-78
2023/12/11 05:58:22;;;;;;;5.10;2.22;;;;;;;13.64;65.23;96049.63;4909215;28;20223;-78
2023/12/11 06:00:47;;;;;;;3.60;1.80;;;;;;;13.84;64.06;96041.38;4909134;28;20220;-78
2023/12/11 06:03:12;;;;;;;2.53;2.33;;;;;;;13.74;64.94;96043.44;4900634;28;20253;-78
2023/12/11 06:05:38;;;;;;;2.33;1.85;;;;;;;13.80;65.10;96023.97;4893827;28;20223;-78
2023/12/11 06:08:04;;;;;;;2.88;1.80;;;;;;;13.83;64.19;96039.09;4889960;28;20395;-78
2023/12/11 06:10:29;;;;;;;3.08;2.20;;;;;;;13.70;64.50;96039.88;4873585;28;20247;-78
2023/12/11 06:12:55;;;;;;;5.57;2.65;;;;;;;13.74;64.78;96059.13;4873440;28;20906;-78
2023/12/11 06:15:20;;;;;;;5.50;2.17;;;;;;;13.73;65.22;96060.22;4914329;28;20200;-78
2023/12/11 06:17:46;;;;;;;4.22;2.20;;;;;;;13.68;64.56;96063.69;4888618;28;20181;-78
2023/12/11 06:20:11;;;;;;;3.50;2.60;;;;;;;13.71;64.15;96067.56;4906065;28;20655;-78
2023/12/11 06:22:37;;;;;;;3.08;1.67;;;;;;;13.66;64.51;96065.84;4903073;28;20194;-78
2023/12/11 06:25:02;;;;;;;3.97;2.08;;;;;;;13.59;64.83;96054.97;4885384;28;20342;-78
2023/12/11 06:27:28;;;;;;;3.58;1.73;;;;;;;13.51;65.58;96056.44;4881005;28;20273;-77
2023/12/11 06:29:54;;;;;;;3.53;2.30;;;;;;;13.56;64.63;96055.56;4912407;28;20230;-78
2023/12/11 06:32:19;;;;;;;4.82;2.13;;;;;;;13.61;64.54;96048.41;4905633;28;20573;-80
2023/12/11 06:34:45;;;;;;;4.00;2.17;;;;;;;13.65;63.76;96038.88;4919477;28;20289;-77
2023/12/11 06:37:10;;;;;;;4.32;1.98;;;;;;;13.63;63.85;96033.19;4893876;28;20225;-78
2023/12/11 06:39:36;;;;;;;2.72;1.40;;;;;;;13.44;64.72;96035.13;4914408;28;20265;-77
2023/12/11 06:42:02;;;;;;;2.65;1.52;;;;;;;13.49;63.97;96024.56;4890341;28;20179;-78
2023/12/11 06:44:27;;;;;;;4.03;1.95;;;;;;;13.50;65.27;96026.09;4908571;28;20231;-79
2023/12/11 06:46:53;;;;;;;3.60;1.88;;;;;;;13.52;64.29;96041.50;4908970;28;20197;-78
2023/12/11 06:49:18;;;;;;;3.42;1.35;;;;;;;13.63;63.99;96020.09;4912056;28;20632;-78
2023/12/11 06:51:44;;;;;;;3.05;1.58;;;;;;;13.54;64.87;96023.69;4912684;28;20729;-79
2023/12/11 06:54:10;;;;;;;4.57;1.45;;;;;;;13.66;63.84;96018.75;4912020;28;20728;-79
2023/12/11 06:56:37;;;;;;;2.80;1.40;;;;;;;13.56;63.89;96035.41;4928140;28;20639;-80
2023/12/11 06:59:02;;;;;;;3.00;1.80;;;;;;;13.63;65.07;96027.19;4894949;28;20307;-77
2023/12/11 07:01:29;;;;;;;3.85;1.65;;;;;;;13.59;65.32;96031.44;4893316;28;20201;-78
2023/12/11 07:03:55;;;;;;;4.45;1.20;;;;;;;13.47;64.25;96022.25;4910708;28;20553;-78
2023/12/11 07:06:20;;;;;;;4.65;1.60;;;;;;;13.61;64.35;96026.69;4896074;28;20251;-77
2023/12/11 07:08:45;;;;;;;4.55;1.63;;;;;;;13.58;64.42;96028.03;4884670;28;20174;-78
2023/12/11 07:11:11;;;;;;;4.07;1.80;;;;;;;13.60;64.87;96019.91;4892540;28;20192;-78
2023/12/11 07:13:36;;;;;;;7.70;2.15;;;;;;;13.66;64.35;96018.75;4900587;28;20193;-78
2023/12/11 07:16:02;;;;;;;3.05;1.38;;;;;;;13.75;63.80;96021.47;4876369;28;20280;-78
2023/12/11 07:18:27;;;;;;;2.40;2.03;;;;;;;13.77;64.07;96029.78;4920959;28;20272;-78
2023/12/11 07:20:53;;;;;;;2.70;1.58;;;;;;;13.46;64.27;96028.53;4927893;28;20220;-78
2023/12/11 07:23:18;;;;;;;2.72;1.23;;;;;;;13.69;63.72;96023.38;4920646;28;20224;-77
2023/12/11 07:25:43;;;;;;;1.83;0.98;;;;;;;13.62;64.27;96017.78;4890559;28;20904;-78
2023/12/11 07:28:10;;;;;;;2.40;1.17;;;;;;;13.47;64.13;96018.88;4870781;28;20542;-78
2023/12/11 07:30:35;;;;;;;2.55;1.42;;;;;;;13.72;63.84;96032.50;4939415;28;20394;-78
2023/12/11 07:33:00;;;;;;;2.10;0.98;;;;;;;13.61;63.71;96019.63;4930257;28;20281;-78
2023/12/11 07:35:26;;;;;;;2.55;1.23;;;;;;;13.57;63.91;96018.66;4891444;28;20283;-78
2023/12/11 07:37:51;;;;;;;2.92;1.05;;;;;;;13.74;63.77;96019.91;4894144;28;20150;-78
2023/12/11 07:40:17;;;;;;;3.20;1.20;;;;;;;13.66;63.51;96018.75;4913933;28;20267;-78
2023/12/11 07:42:43;;;;;;;2.90;0.95;;;;;;;13.67;64.38;96031.53;4908677;28;20597;-79
2023/12/11 07:45:09;;;;;;;4.40;1.60;;;;;;;13.61;64.02;96022.25;4908835;28;20689;-78
2023/12/11 07:47:34;;;;;;;5.85;1.92;;;;;;;13.61;64.41;96019.63;4911306;28;20284;-77
2023/12/11 07:50:00;;;;;;;3.75;0.98;;;;;;;13.68;63.68;96011.38;4920064;28;20644;-78
2023/12/11 07:52:30;;;;;;;4.93;1.10;;;;;;;13.79;63.64;96017.19;4875857;28;20296;-78
2023/12/11 07:54:56;;;;;;;6.20;1.27;;;;;;;13.65;63.17;96014.59;4891677;28;20334;-78
2023/12/11 07:57:25;;;;;;;2.83;0.95;;;;;;;13.73;63.96;96020.97;4876112;28;20041;-78
2023/12/11 07:59:50;;;;;;;4.45;1.50;;;;;;;13.62;64.09;96028.25;4875685;28;20286;-78
2023/12/11 08:02:15;;;;;;;2.50;1.30;;;;;;;13.67;63.25;96042.00;4907159;28;20322;-78
2023/12/11 08:04:41;;;;;;;3.05;1.17;;;;;;;13.65;62.89;96046.72;4875106;28;20670;-78
2023/12/11 08:07:06;;;;;;;3.88;1.17;;;;;;;13.47;64.32;96039.78;4884078;28;20280;-79
2023/12/11 08:09:36;;;;;;;6.20;1.23;;;;;;;13.47;64.75;96047.63;4921837;28;20275;-78
2023/12/11 08:12:02;;;;;;;5.65;1.33;;;;;;;13.55;63.59;96054.00;4907510;28;20225;-78
2023/12/11 08:14:28;;;;;;;6.72;1.70;;;;;;;13.68;63.15;96034.94;4909076;28;20686;-78
2023/12/11 08:16:53;;;;;;;4.90;1.55;;;;;;;13.52;64.36;96044.13;4909923;28;20150;-78
2023/12/11 08:19:19;;;;;;;2.63;1.15;;;;;;;13.58;63.73;96042.97;4903655;28;20273;-78
2023/12/11 08:21:44;;;;;;;4.97;1.50;;;;;;;13.65;63.42;96046.72;4915755;28;20196;-77
2023/12/11 08:24:10;;;;;;;5.20;1.70;;;;;;;13.53;63.45;96048.31;4892862;28;20260;-78
2023/12/11 08:26:35;;;;;;;4.18;1.80;;;;;;;13.67;63.74;96042.00;4910924;28;20692;-77
2023/12/11 08:29:00;;;;;;;5.53;1.77;;;;;;;13.74;63.03;96038.22;4892193;28;20304;-79
2023/12/11 08:31:26;;;;;;;4.53;1.13;;;;;;;13.74;63.53;96046.06;4919206;28;20262;-77
2023/12/11 08:33:51;;;;;;;6.20;1.70;;;;;;;13.83;62.87;96050.31;4887416;28;20253;-79
2023/12/11 08:36:17;;;;;;;6.00;2.35;;;;;;;13.91;63.69;96042.84;4908267;28;20256;-78
2023/12/11 08:38:42;;;;;;;5.82;1.08;;;;;;;13.95;62.69;96047.22;4877844;28;20209;-78
2023/12/11 08:41:08;;;;;;;3.58;1.05;;;;;;;13.93;62.73;96049.34;4874474;28;20288;-79
2023/12/11 08:43:33;;;;;;;5.50;1.00;;;;;;;14.04;62.91;96049.91;4891532;28;20664;-79
2023/12/11 08:45:59;;;;;;;4.57;1.65;;;;;;;13.90;63.07;96055.16;4906365;28;20193;-79
2023/12/11 08:48:24;;;;;;;2.85;1.40;;;;;;;13.70;63.23;96071.25;4874839;28;20248;-79
2023/12/11 08:50:52;;;;;;;6.72;1.63;;;;;;;13.85;62.44;96063.88;4891300;28;20260;-80
2023/12/11 08:53:19;;;;;;;6.03;1.50;;;;;;;13.87;63.02;96055.75;4897642;28;20193;-79
2023/12/11 08:55:44;;;;;;;4.35;1.52;;;;;;;14.03;62.66;96059.59;4921747;28;20654;-78
2023/12/11 08:58:10;;;;;;;4.75;1.00;;;;;;;14.08;61.03;96055.31;4926697;28;20289;-81
2023/12/11 09:00:35;;;;;;;5.97;1.20;;;;;;;13.98;62.36;96051.88;4878057;28;20684;-79
2023/12/11 09:03:01;;;;;;;5.88;1.67;;;;;;;13.96;61.63;96053.97;4898474;28;20316;-78
2023/12/11 09:05:26;;;;;;;7.72;1.35;;;;;;;14.01;61.25;96061.72;4926164;28;20255;-78
2023/12/11 09:07:52;;;;;;;6.85;1.40;;;;;;;13.95;60.88;96056.88;4892137;28;20645;-78
2023/12/11 09:10:17;;;;;;;6.28;1.30;;;;;;;13.78;61.49;96058.28;4911915;28;20256;-79
2023/12/11 09:12:43;;;;;;;2.60;1.05;;;;;;;13.94;61.68;96056.13;4909570;28;20213;-78
2023/12/11 09:15:09;;;;;;;3.55;1.20;;;;;;;14.21;61.33;96065.00;4892274;28;20378;-78
2023/12/11 09:17:34;;;;;;;6.00;1.25;;;;;;;14.05;60.80;96072.38;4882177;28;20212;-79
2023/12/11 09:20:04;;;;;;;7.95;1.70;;;;;;;14.08;60.26;96071.03;4874203;28;20182;-78
2023/12/11 09:22:29;;;;;;;2.97;1.35;;;;;;;13.95;60.82;96080.44;4903047;28;20136;-78
2023/12/11 09:24:55;;;;;;;9.57;2.15;;;;;;;14.16;60.17;96075.56;4912658;28;20201;-78
2023/12/11 09:27:21;;;;;;;8.05;1.50;;;;;;;13.99;61.08;96084.78;4892875;28;20213;-78
2023/12/11 09:29:49;;;;;;;4.25;1.67;;;;;;;14.07;60.39;96093.03;4877487;28;20190;-78
2023/12/11 09:32:18;;;;;;;3.85;1.25;;;;;;;14.15;60.52;96090.47;4906941;28;20205;-79
2023/12/11 09:34:43;;;;;;;4.80;1.95;;;;;;;14.01;60.73;96082.66;4889253;28;20715;-79
2023/12/11 09:37:09;;;;;;;4.30;1.48;;;;;;;14.15;59.77;96081.88;4897708;28;20213;-78
2023/12/11 09:39:35;;;;;;;6.80;1.50;;;;;;;13.77;59.78;96087.34;4921411;28;20259;-80
2023/12/11 09:42:01;;;;;;;7.65;1.50;;;;;;;13.87;60.01;96102.84;4873472;28;20205;-78
2023/12/11 09:44:27;;;;;;;7.35;1.48;;;;;;;13.96;58.95;96093.22;4877416;28;20667;-78
2023/12/11 09:46:58;;;;;;;7.75;1.80;;;;;;;13.89;57.39;96094.69;4885282;28;20209;-79
2023/12/11 09:49:24;;;;;;;12.52;2.78;;;;;;;13.84;58.27;96087.72;4921183;28;20209;-78
2023/12/11 09:51:50;;;;;;;7.05;1.98;;;;;;;14.15;56.45;96094.97;4871445;28;20200;-78
2023/12/11 09:54:16;;;;;;;7.10;1.65;;;;;;;14.34;57.32;96089.59;4889302;28;20167;-78
2023/12/11 09:56:42;;;;;;;6.95;1.88;;;;;;;14.41;56.17;96088.13;4889104;28;20572;-78
2023/12/11 09:59:11;;;;;;;5.10;1.35;;;;;;;14.54;56.17;96093.59;4905747;28;20271;-78
2023/12/11 10:01:37;;;;;;;9.82;2.42;;;;;;;14.09;55.71;96104.75;4900567;28;20213;-78
2023/12/11 10:04:03;;;;;;;8.60;3.25;;;;;;;14.07;54.89;96095.63;4905213;28;20404;-78
2023/12/11 10:06:29;;;;;;;8.45;1.70;;;;;;;14.22;55.13;96100.56;4855579;28;24617;-79
2023/12/11 10:08:55;;;;;;;6.93;1.65;;;;;;;14.47;55.02;96103.72;4888588;28;20217;-78
2023/12/11 10:11:26;;;;;;;8.90;1.90;;;;;;;14.31;54.64;96096.19;4908429;28;20203;-80
2023/12/11 10:13:52;;;;;;;14.15;3.22;;;;;;;14.42;54.47;96097.50;4898997;28;20186;-78
2023/12/11 10:16:30;;;;;;;9.52;1.42;;;;;;;14.57;54.24;96111.38;4910884;28;20745;-79
2023/12/11 10:18:56;;;;;;;10.20;2.05;;;;;;;14.49;53.74;96091.88;4908847;28;20193;-80
2023/12/11 10:21:25;;;;;;;7.88;2.08;;;;;;;14.47;54.45;96088.78;4900931;28;20210;-78
2023/12/11 10:24:03;;;;;;;7.63;2.10;;;;;;;14.59;53.93;96094.28;4898945;28;20223;-78
2023/12/11 10:26:31;;;;;;;5.68;1.67;;;;;;;14.40;54.61;96089.19;4897823;28;20200;-78
2023/12/11 10:29:16;;;;;;;10.60;2.63;;;;;;;14.46;54.72;96094.31;4912399;28;20092;-78
2023/12/11 10:31:41;;;;;;;10.20;3.53;;;;;;;14.08;54.44;96084.88;4911271;28;20215;-78
2023/12/11 10:34:06;;;;;;;12.63;2.20;;;;;;;14.27;55.37;96089.22;4925247;28;20759;-78
2023/12/11 10:36:32;;;;;;;10.82;1.85;;;;;;;13.94;53.74;96103.22;4885148;28;20335;-77
2023/12/11 10:39:10;;;;;;;8.40;2.08;;;;;;;14.32;54.61;96087.25;4876899;28;20234;-78
2023/12/11 10:41:36;;;;;;;7.82;1.70;;;;;;;14.13;54.34;96099.72;4884288;28;20263;-77
2023/12/11 10:44:02;;;;;;;9.02;2.10;;;;;;;14.14;54.56;96086.34;4909215;28;20316;-79
2023/12/11 10:46:27;;;;;;;7.13;1.50;;;;;;;13.88;54.74;96099.16;4879484;28;20183;-78
2023/12/11 10:48:54;;;;;;;11.70;2.03;;;;;;;14.26;54.54;96085.84;4921232;28;20212;-79
2023/12/11 10:51:20;;;;;;;11.35;1.77;;;;;;;14.26;54.26;96092.88;4919125;28;20577;-79
2023/12/11 10:53:46;;;;;;;7.13;1.85;;;;;;;14.30;53.87;96094.63;4896261;28;20291;-79
2023/12/11 10:56:11;;;;;;;8.43;2.28;;;;;;;14.01;54.22;96102.81;4895995;28;20198;-77
2023/12/11 10:58:37;;;;;;;7.45;1.52;;;;;;;14.23;55.08;96102.88;4928380;28;20750;-79
2023/12/11 11:01:04;;;;;;;11.50;2.60;;;;;;;14.53;54.50;96105.16;4909504;28;20752;-77
2023/12/11 11:03:30;;;;;;;7.68;1.92;;;;;;;14.17;54.75;96096.22;4887767;28;20892;-78
2023/12/11 11:05:56;;;;;;;9.68;2.38;;;;;;;14.32;54.77;96096.97;4909162;28;20159;-78
2023/12/11 11:08:36;;;;;;;7.13;1.70;;;;;;;14.39;54.82;96105.97;4902324;28;20283;-80
2023/12/11 11:11:09;;;;;;;7.57;2.40;;;;;;;14.56;54.20;96101.94;4908325;28;20623;-78
2023/12/11 11:13:47;;;;;;;7.50;1.75;;;;;;;14.50;54.21;96097.91;4893792;28;20607;-80
2023/12/11 11:16:13;;;;;;;4.97;1.40;;;;;;;14.48;55.40;96115.72;4909142;28;20200;-78
2023/12/11 11:19:05;;;;;;;10.25;2.15;;;;;;;14.60;54.70;96114.19;4896462;28;20206;-77
2023/12/11 11:21:30;;;;;;;8.25;2.05;;;;;;;14.46;54.94;96113.41;4896260;28;20626;-80
2023/12/11 11:23:56;;;;;;;10.32;1.67;;;;;;;14.04;54.13;96120.56;4902263;28;20174;-80
2023/12/11 11:26:33;;;;;;;8.55;1.70;;;;;;;14.22;54.14;96139.84;4867166;28;20178;-78
2023/12/11 11:28:58;;;;;;;9.02;3.55;;;;;;;14.13;54.27;96141.59;4876718;28;20179;-79